Terminal Aerodrome Forecast
Issued by NWS El Paso, TX

Home | Current Version | Previous Version | Text Only | Print | Product List | Glossary On
Versions: 1 2 3 4 5 6 7 8 9 10 11 12 13
122
FTUS44 KEPZ 290541
TAFELP
TAF
KELP 290541Z 2906/3006 10010KT P6SM FEW070 SCT120 BKN200
     FM291000 VRB05KT P6SM SCT100 BKN200
     FM291800 12012KT P6SM SCT060 BKN100
     FM292000 12012KT P6SM VCSH BKN060 OVC140=

USA.gov is the U.S. government's official web portal to all federal, state and local government web resources and services.